Back to Top

Current Local METAR Station Weather Reports...

Local METAR Reports

Local METAR Reports

 

EGNJ - Humberside, United Kingdom
Distance from station: ESE 12mi, 20km
Updated: Fri, 14-Aug-2020 8:50pm BST
Overcast
Overcast
 Wind from NNE
Wind: NNE 15 mph , 24 km/h
Temperature: 17°C
Dew Point: 15°C
Humidity: 88%
Barometer: 1017 hPa
Clouds: Overcast
Visibility: 6 miles , 10 km
Cloud details: Overcast 274 m
2020/08/14 19:50 EGNJ 141950Z AUTO 03013KT 9999 OVC009/// 17/15 Q1017
EGXV - Leconfield (aut), United Kingdom
Distance from station: NNE 16mi, 26km
Updated: Fri, 14-Aug-2020 7:50pm BST
Overcast
Overcast
 Wind from NNE
Wind: NNE 12 mph , 19 km/h
Temperature: 17°C
Dew Point: 14°C
Humidity: 83%
Barometer: 1016 hPa
Clouds: Overcast
Visibility: 6 miles , 10 km
Cloud details: Overcast 335 m
2020/08/14 18:50 EGXV 141850Z AUTO 03010KT 9999 OVC011/// 17/14 Q1016
 
EGCN - Doncaster Sheffi, United Kingdom
Distance from station: SW 20mi, 32km
Updated: Fri, 14-Aug-2020 8:50pm BST
Clear
Clear
 Wind from NNE
Wind: NNE 12 mph , 19 km/h
Temperature: 17°C
Dew Point: 14°C
Humidity: 83%
Barometer: 1018 hPa
Summary: Clear
Visibility: greater than 7 miles , 10 km
2020/08/14 19:50 EGCN 141950Z 02010KT CAVOK 17/14 Q1018
EGXP - Scampton Raf, United Kingdom
Distance from station: S 25mi, 39km
Updated: Fri, 14-Aug-2020 7:50pm BST
Mostly Cloudy
Mostly Cloudy
 Wind from NNE
Wind: NNE 16 mph , 26 km/h
Temperature: 17°C
Dew Point: 14°C
Humidity: 83%
Barometer: 1015 hPa
Clouds: Mostly Cloudy
Visibility: 6 miles , 10 km
Cloud details: Few Clouds 366 m
Mostly Cloudy 5791 m
2020/08/14 18:50 EGXP 141850Z AUTO 03014KT 9999 // FEW012/// BKN190/// 17/14 Q1015
 
EGXW - Waddington Raf, United Kingdom
Distance from station: S 33mi, 53km
Updated: Fri, 14-Aug-2020 7:50pm BST
Clear
Clear
 Wind from NNE
Wind: NNE 16 mph , 26 km/h
Temperature: 17°C
Dew Point: 14°C
Humidity: 83%
Barometer: 1015 hPa
Clouds: Clear
Visibility: 6 miles , 10 km
2020/08/14 18:50 EGXW 141850Z AUTO 03014KT 9999 NCD 17/14 Q1015
EGXS - Donna Nook Raf, United Kingdom
Distance from station: ESE 33mi, 54km
Updated: Fri, 14-Aug-2020 7:50pm BST
Overcast
Overcast
 Wind from N
Wind: N 22 mph , 35 km/h
Temperature: 16°C
Dew Point: 15°C
Humidity: 94%
Barometer: 1016 hPa
Clouds: Overcast
Visibility: 6 miles , 10 km
Cloud details: Overcast 122 m
2020/08/14 18:50 EGXS 141850Z AUTO 36019KT 9999 // OVC004/// 16/15 Q1016
 
EGXU - Linton-On-Ouse R, United Kingdom
Distance from station: NW 38mi, 61km
Updated: Fri, 14-Aug-2020 7:50pm BST
Mostly Cloudy
Mostly Cloudy
 Wind from NE
Wind: NE 8 mph , 13 km/h
Temperature: 18°C
Dew Point: 14°C
Humidity: 78%
Barometer: 1017 hPa
Clouds: Mostly Cloudy
Visibility: 6 miles , 10 km
Cloud details: Mostly Cloudy 549 m
2020/08/14 18:50 EGXU 141850Z AUTO 05007KT 9999 BKN018/// 18/14 Q1017
EGXC - Coningsby Raf, United Kingdom
Distance from station: SSE 42mi, 68km
Updated: Fri, 14-Aug-2020 7:50pm BST
Partly Cloudy
Partly Cloudy
 Wind from NNE
Wind: NNE 16 mph , 26 km/h
Temperature: 17°C
Dew Point: 14°C
Humidity: 83%
Barometer: 1015 hPa
Clouds: Partly Cloudy
Visibility: 6 miles , 10 km
Cloud details: Mostly Cloudy 274 m
Partly Cloudy 4877 m
2020/08/14 18:50 EGXC 141850Z 03014KT 9999 BKN009 SCT160 17/14 Q1015 RMK GRN
 
EGYD - Cranwell Raf, United Kingdom
Distance from station: S 43mi, 69km
Updated: Fri, 14-Aug-2020 7:50pm BST
Few Clouds
Few Clouds
 Wind from NNE
Wind: NNE 14 mph , 22 km/h
Temperature: 17°C
Dew Point: 14°C
Humidity: 83%
Barometer: 1015 hPa
Clouds: Few Clouds
Visibility: 6 miles , 10 km
Cloud details: Few Clouds 427 m
2020/08/14 18:50 EGYD 141850Z AUTO 03012KT 9999 // FEW014/// 17/14 Q1015
EGNM - Leeds And Bradfo, United Kingdom
Distance from station: WNW 44mi, 71km
Updated: Fri, 14-Aug-2020 8:50pm BST
Mostly Cloudy
Mostly Cloudy
 Wind from N
Wind: N 13 mph , 20 km/h
Temperature: 15°C
Dew Point: 14°C
Humidity: 94%
Barometer: 1018 hPa
Clouds: Mostly Cloudy
Visibility: 6 miles , 10 km
Cloud details: Few Clouds 91 m
Mostly Cloudy 122 m
2020/08/14 19:50 EGNM 141950Z 36011KT 9999 FEW003 BKN004 15/14 Q1018
 
EGXZ - Topcliffe Raf, United Kingdom
Distance from station: NW 49mi, 79km
Updated: Fri, 14-Aug-2020 8:50pm BST
Mostly Cloudy
Mostly Cloudy
 Wind from NNW
Wind: NNW 10 mph , 17 km/h
Temperature: 16°C
Dew Point: 15°C
Humidity: 94%
Barometer: 1018 hPa
Clouds: Mostly Cloudy
Visibility: 6 miles , 10 km
Cloud details: Mostly Cloudy 366 m
2020/08/14 19:50 EGXZ 141950Z AUTO 34009KT 9999 BKN012/// 16/15 Q1018
EGXE - Leeming Raf, United Kingdom
Distance from station: NW 57mi, 92km
Updated: Fri, 14-Aug-2020 7:50pm BST
Overcast
Overcast
 Wind from N
Wind: N 9 mph , 15 km/h
Temperature: 15°C
Dew Point: 15°C
Humidity: 100%
Barometer: 1018 hPa
Clouds: Overcast
Visibility: 6 miles , 10 km
Cloud details: Overcast 183 m
2020/08/14 18:50 EGXE 141850Z AUTO 36008KT 9999 OVC006/// 15/15 Q1018 REDZ
 
EGYH - Holbeach (aut), United Kingdom
Distance from station: SSE 63mi, 101km
Updated: Thu, 06-Aug-2020 3:50pm BST
NOT Current
Mostly Cloudy
Mostly Cloudy
 Wind from SW
Wind: SW 15 mph , 24 km/h
Temperature: 26°C
Dew Point: 18°C
Humidity: 61%
Barometer: 1017 hPa
Clouds: Mostly Cloudy
Visibility: 6 miles , 10 km
Cloud details: Mostly Cloudy 1067 m
2020/08/06 14:50 EGYH 061450Z 22013KT 9999 BKN035 26/18 Q1017 RMK BLU
EGNX - East Midlands, United Kingdom
Distance from station: SSW 65mi, 104km
Updated: Fri, 14-Aug-2020 8:20pm BST
Clear
Clear
 Wind from NNE
Wind: NNE 8 mph , 13 km/h
Temperature: 19°C
Dew Point: 14°C
Humidity: 73%
Barometer: 1015 hPa
Summary: Clear
Visibility: greater than 7 miles , 10 km
2020/08/14 19:20 EGNX 141920Z 02007KT 340V050 CAVOK 19/14 Q1015
 
EGNV - Tees-Side, United Kingdom
Distance from station: NNW 68mi, 109km
Updated: Fri, 14-Aug-2020 8:20pm BST
Haze, Overcast
Haze, Overcast
 Wind from NNE
Wind: NNE 8 mph , 13 km/h
Temperature: 15°C
Dew Point: 14°C
Humidity: 94%
Barometer: 1018 hPa
Summary: Haze
Clouds: Overcast
Visibility: 2 miles , 3 km
Cloud details: Overcast 122 m
2020/08/14 19:20 EGNV 141920Z 02007KT 3000 HZ OVC004 15/14 Q1018
EGCC - Manchester Intl, United Kingdom
Distance from station: WSW 71mi, 114km
Updated: Fri, 14-Aug-2020 8:20pm BST
Clear
Clear
 Wind from NE
Wind: NE 8 mph , 13 km/h
Temperature: 20°C
Dew Point: 16°C
Humidity: 78%
Barometer: 1016 hPa
Clouds: Clear
Visibility: 6 miles , 10 km
2020/08/14 19:20 EGCC 141920Z AUTO 05007KT 9999 NCD 20/16 Q1016 NOSIG

Metar display script from Saratoga-Weather.org

Data updates at regular intervals.